Time;durP1;ratioP1;P1;durP2;ratioP2;P2;SDS_P1;SDS_P2;PMS_P1;PMS_P2;Temp;Humidity;BMP_temperature;BMP_pressure;BME280_temperature;BME280_humidity;BME280_pressure;Samples;Min_cycle;Max_cycle;Signal;HPM_P1;HPM_P2
2021/04/26 00:00:50;;;;;;;1.70;1.60;;;2.30;99.90;;;;;;5008476;28;21231;-80
2021/04/26 00:03:16;;;;;;;2.30;2.10;;;2.40;99.90;;;;;;5010039;28;20182;-80
2021/04/26 00:05:42;;;;;;;2.00;1.90;;;2.40;99.90;;;;;;5010617;28;20269;-80
2021/04/26 00:08:07;;;;;;;2.50;1.67;;;2.40;99.90;;;;;;5011044;28;20518;-80
2021/04/26 00:10:33;;;;;;;2.00;1.47;;;2.40;99.90;;;;;;5025724;28;20249;-80
2021/04/26 00:13:00;;;;;;;2.93;1.60;;;2.30;99.90;;;;;;5010924;28;20201;-81
2021/04/26 00:15:28;;;;;;;5.70;2.07;;;2.30;99.90;;;;;;5010739;28;20169;-80
2021/04/26 00:17:54;;;;;;;2.60;1.97;;;2.20;99.90;;;;;;5010491;28;20436;-80
2021/04/26 00:20:27;;;;;;;1.73;1.60;;;2.30;99.90;;;;;;5012297;28;20469;-81
2021/04/26 00:22:59;;;;;;;1.80;1.70;;;2.20;99.90;;;;;;5011671;28;20511;-80
2021/04/26 00:25:25;;;;;;;1.20;1.20;;;2.20;99.90;;;;;;5009658;28;20435;-80
2021/04/26 00:27:51;;;;;;;1.23;1.17;;;2.20;99.90;;;;;;5013584;28;20447;-80
2021/04/26 00:30:19;;;;;;;1.60;1.50;;;2.10;99.90;;;;;;5011922;28;20463;-80
2021/04/26 00:32:46;;;;;;;2.20;1.33;;;2.00;99.90;;;;;;5012553;28;20185;-80
2021/04/26 00:35:13;;;;;;;1.50;1.40;;;2.00;99.90;;;;;;5011043;28;20427;-81
2021/04/26 00:37:40;;;;;;;2.17;2.07;;;1.90;99.90;;;;;;5012784;28;20503;-80
2021/04/26 00:40:07;;;;;;;6.10;1.50;;;1.90;99.90;;;;;;5010639;28;20755;-80
2021/04/26 00:42:34;;;;;;;1.60;1.50;;;1.90;99.90;;;;;;5008859;28;20824;-80
2021/04/26 00:45:00;;;;;;;3.73;1.60;;;1.80;99.90;;;;;;5011167;28;20439;-80
2021/04/26 00:47:25;;;;;;;5.83;2.20;;;1.80;99.90;;;;;;5009196;28;20921;-80
2021/04/26 00:49:51;;;;;;;1.13;1.13;;;1.80;99.90;;;;;;5012360;28;20465;-80
2021/04/26 00:52:17;;;;;;;1.50;1.40;;;1.70;99.90;;;;;;5010843;28;20181;-81
2021/04/26 00:54:44;;;;;;;1.63;1.53;;;1.70;99.90;;;;;;5009462;28;20180;-80
2021/04/26 00:57:10;;;;;;;2.20;1.70;;;1.70;99.90;;;;;;5010986;28;20233;-81
2021/04/26 00:59:36;;;;;;;1.87;1.60;;;1.70;99.90;;;;;;5009494;28;20484;-81
2021/04/26 01:02:02;;;;;;;2.77;2.17;;;1.60;99.90;;;;;;5009079;28;20475;-81
2021/04/26 01:04:30;;;;;;;1.90;1.80;;;1.60;99.90;;;;;;5011451;28;20178;-81
2021/04/26 01:06:56;;;;;;;2.60;2.00;;;1.50;99.90;;;;;;5003095;28;20534;-81
2021/04/26 01:09:22;;;;;;;2.67;1.70;;;1.40;99.90;;;;;;5011630;28;20720;-81
2021/04/26 01:12:06;;;;;;;2.53;2.43;;;1.40;99.90;;;;;;5010636;28;20187;-81
2021/04/26 01:14:42;;;;;;;4.80;2.17;;;1.30;99.90;;;;;;5026354;28;20203;-81
2021/04/26 01:17:14;;;;;;;4.40;2.00;;;1.40;99.90;;;;;;5007455;28;20450;-81
2021/04/26 01:19:58;;;;;;;2.00;1.60;;;1.40;99.90;;;;;;5012936;28;20426;-80
2021/04/26 01:23:01;;;;;;;4.00;1.70;;;1.40;99.90;;;;;;5011314;28;20825;-81
2021/04/26 01:25:27;;;;;;;1.47;1.37;;;1.40;99.90;;;;;;5009795;28;20461;-81
2021/04/26 01:28:34;;;;;;;2.30;2.10;;;1.30;99.90;;;;;;5026540;28;20617;-80
2021/04/26 01:31:11;;;;;;;2.43;1.60;;;1.30;99.90;;;;;;5010922;28;20454;-81
2021/04/26 01:33:40;;;;;;;2.33;1.70;;;1.20;99.90;;;;;;5012108;28;20418;-81
2021/04/26 01:36:08;;;;;;;2.00;1.73;;;1.10;99.90;;;;;;5006560;28;20431;-81
2021/04/26 01:38:40;;;;;;;2.07;1.67;;;1.20;99.90;;;;;;5008960;28;20496;-81
2021/04/26 01:41:07;;;;;;;1.30;1.20;;;1.10;99.90;;;;;;5010545;28;20475;-81
2021/04/26 01:43:34;;;;;;;2.50;1.83;;;1.10;99.90;;;;;;5009655;28;20440;-81
2021/04/26 01:46:03;;;;;;;2.00;1.70;;;1.20;99.90;;;;;;5010186;28;20436;-82
2021/04/26 01:48:32;;;;;;;1.73;1.63;;;1.20;99.90;;;;;;5010459;28;20436;-81
2021/04/26 01:51:00;;;;;;;1.60;1.50;;;1.10;99.90;;;;;;5025115;28;20455;-81
2021/04/26 01:53:27;;;;;;;3.37;1.80;;;1.10;99.90;;;;;;5009997;28;20474;-82
2021/04/26 01:56:02;;;;;;;2.30;2.10;;;1.10;99.90;;;;;;5006969;28;20434;-82
2021/04/26 01:58:29;;;;;;;1.77;1.67;;;1.10;99.90;;;;;;5008056;28;20460;-82
2021/04/26 02:00:55;;;;;;;1.60;1.53;;;1.10;99.90;;;;;;5008925;28;20458;-81
2021/04/26 02:03:23;;;;;;;1.90;1.80;;;1.10;99.90;;;;;;5008827;28;20430;-82
2021/04/26 02:05:51;;;;;;;2.80;1.37;;;1.10;99.90;;;;;;5009489;28;20530;-82
2021/04/26 02:08:17;;;;;;;1.70;1.60;;;1.10;99.90;;;;;;5009279;28;20434;-82
2021/04/26 02:10:43;;;;;;;1.80;1.70;;;1.20;99.90;;;;;;5005608;28;20935;-82
2021/04/26 02:13:10;;;;;;;1.40;1.40;;;1.20;99.90;;;;;;5009478;28;20906;-82
2021/04/26 02:15:37;;;;;;;1.13;1.13;;;1.20;99.90;;;;;;5008058;28;21899;-82
2021/04/26 02:18:03;;;;;;;2.83;1.60;;;1.20;99.90;;;;;;5010825;28;20767;-81
2021/04/26 02:20:29;;;;;;;2.83;1.57;;;1.20;99.90;;;;;;5010681;28;20438;-82
2021/04/26 02:22:54;;;;;;;1.37;1.27;;;1.30;99.90;;;;;;5010330;28;20450;-81
2021/04/26 02:25:21;;;;;;;1.50;1.40;;;1.30;99.90;;;;;;5008907;28;20647;-82
2021/04/26 02:27:47;;;;;;;1.77;1.67;;;1.30;99.90;;;;;;5008600;28;20180;-80
2021/04/26 02:30:13;;;;;;;1.60;1.50;;;1.40;99.90;;;;;;5010774;28;20459;-82
2021/04/26 02:32:48;;;;;;;1.53;1.43;;;1.40;99.90;;;;;;5010133;28;20554;-83
2021/04/26 02:35:21;;;;;;;1.97;1.80;;;1.40;99.90;;;;;;5011257;28;20417;-82
2021/04/26 02:38:01;;;;;;;1.63;1.53;;;1.30;99.90;;;;;;5010371;28;20441;-82
2021/04/26 02:40:35;;;;;;;1.50;1.40;;;1.40;99.90;;;;;;5009609;28;20435;-81
2021/04/26 02:43:01;;;;;;;2.20;1.90;;;1.40;99.90;;;;;;5010370;28;20612;-82
2021/04/26 02:45:29;;;;;;;1.37;1.27;;;1.40;99.90;;;;;;5007150;28;20465;-82
2021/04/26 02:47:56;;;;;;;1.27;1.27;;;1.50;99.90;;;;;;5009470;28;20933;-82
2021/04/26 02:50:25;;;;;;;1.37;1.30;;;1.50;99.90;;;;;;5015027;28;20461;-82
2021/04/26 02:52:52;;;;;;;1.10;1.10;;;1.50;99.90;;;;;;5012137;28;20466;-82
2021/04/26 02:55:20;;;;;;;1.43;1.33;;;1.50;99.90;;;;;;5012992;28;20431;-83
2021/04/26 02:57:48;;;;;;;1.20;1.20;;;1.50;99.90;;;;;;5013922;28;20446;-82
2021/04/26 03:00:17;;;;;;;1.43;1.40;;;1.60;99.90;;;;;;5013112;28;20590;-82
2021/04/26 03:02:44;;;;;;;1.50;1.40;;;1.60;99.90;;;;;;5027480;28;20443;-82
2021/04/26 03:05:10;;;;;;;1.50;1.40;;;1.60;99.90;;;;;;5012341;28;20446;-82
2021/04/26 03:07:37;;;;;;;1.73;1.63;;;1.50;99.90;;;;;;5011965;28;20456;-82
2021/04/26 03:10:08;;;;;;;2.03;1.93;;;1.50;99.90;;;;;;5013613;28;20450;-82
2021/04/26 03:12:37;;;;;;;1.80;1.70;;;1.60;99.90;;;;;;5012810;28;20427;-82
2021/04/26 03:15:06;;;;;;;1.50;1.40;;;1.60;99.90;;;;;;5012312;28;20432;-82
2021/04/26 03:17:32;;;;;;;1.50;1.40;;;1.60;99.90;;;;;;5008915;28;20822;-82
2021/04/26 03:19:59;;;;;;;1.70;1.13;;;1.50;99.90;;;;;;5012745;28;20434;-82
2021/04/26 03:22:25;;;;;;;2.60;1.70;;;1.60;99.90;;;;;;5011179;28;20442;-82
2021/04/26 03:24:51;;;;;;;2.03;1.70;;;1.60;99.90;;;;;;5012312;28;20562;-82
2021/04/26 03:27:19;;;;;;;4.20;1.40;;;1.70;99.90;;;;;;5012430;28;20481;-82
2021/04/26 03:29:49;;;;;;;1.60;1.50;;;1.70;99.90;;;;;;5011668;28;20559;-82
2021/04/26 03:32:15;;;;;;;1.53;1.30;;;1.70;99.90;;;;;;5014257;28;20436;-82
2021/04/26 03:34:42;;;;;;;1.77;1.60;;;1.70;99.90;;;;;;5011225;28;20437;-82
2021/04/26 03:37:14;;;;;;;1.73;1.20;;;1.70;99.90;;;;;;5012074;28;20450;-82
2021/04/26 03:39:40;;;;;;;1.47;1.37;;;1.70;99.90;;;;;;5012868;28;20526;-82
2021/04/26 03:42:05;;;;;;;1.90;1.80;;;1.80;99.90;;;;;;5011666;28;20427;-82
2021/04/26 03:44:31;;;;;;;2.40;1.60;;;1.80;99.90;;;;;;5011994;28;20773;-82
2021/04/26 03:46:59;;;;;;;1.70;1.60;;;1.80;99.90;;;;;;5012375;28;20725;-82
2021/04/26 03:49:26;;;;;;;1.40;1.30;;;1.80;99.90;;;;;;5012260;28;20187;-82
2021/04/26 03:51:52;;;;;;;2.80;1.40;;;1.80;99.90;;;;;;5011651;28;20986;-82
2021/04/26 03:54:19;;;;;;;3.97;1.80;;;1.90;99.90;;;;;;5009654;28;20545;-82
2021/04/26 03:56:46;;;;;;;1.50;1.40;;;1.80;99.90;;;;;;5010909;28;20441;-83
2021/04/26 03:59:12;;;;;;;1.93;1.83;;;1.80;99.90;;;;;;5011943;28;20525;-82
2021/04/26 04:01:38;;;;;;;2.77;2.30;;;1.70;99.90;;;;;;5012690;28;20476;-82
2021/04/26 04:04:05;;;;;;;3.30;2.50;;;1.80;99.90;;;;;;5010904;28;20434;-82
2021/04/26 04:06:33;;;;;;;5.27;2.50;;;1.80;99.90;;;;;;5013178;28;20434;-82
2021/04/26 04:09:04;;;;;;;3.30;2.20;;;1.90;99.90;;;;;;5013867;28;20443;-82
2021/04/26 04:11:29;;;;;;;9.57;3.00;;;1.90;99.90;;;;;;5010552;28;20469;-81
2021/04/26 04:13:55;;;;;;;3.70;2.60;;;1.90;99.90;;;;;;5013027;28;20436;-82
2021/04/26 04:16:21;;;;;;;2.70;2.30;;;1.90;99.90;;;;;;5008469;28;20636;-82
2021/04/26 04:18:47;;;;;;;3.10;2.27;;;2.00;99.90;;;;;;5011482;28;20180;-82
2021/04/26 04:21:13;;;;;;;4.13;3.33;;;1.90;99.90;;;;;;5011340;28;20638;-82
2021/04/26 04:23:39;;;;;;;2.17;1.97;;;1.90;99.90;;;;;;5011959;28;20188;-81
2021/04/26 04:26:05;;;;;;;4.97;2.10;;;1.80;99.90;;;;;;5010681;28;20444;-82
2021/04/26 04:28:31;;;;;;;2.00;1.90;;;1.80;99.90;;;;;;5011381;28;20448;-82
2021/04/26 04:30:58;;;;;;;2.40;2.30;;;1.90;99.90;;;;;;5009927;28;20210;-82
2021/04/26 04:33:24;;;;;;;5.13;2.77;;;1.80;99.90;;;;;;5005666;28;20463;-82
2021/04/26 04:35:50;;;;;;;3.50;2.20;;;1.80;99.90;;;;;;5005982;28;20522;-82
2021/04/26 04:38:16;;;;;;;4.27;2.43;;;1.90;99.90;;;;;;5007384;28;20888;-82
2021/04/26 04:40:41;;;;;;;2.60;2.40;;;2.00;99.90;;;;;;5008880;28;20439;-82
2021/04/26 04:43:07;;;;;;;2.70;2.20;;;2.00;99.90;;;;;;5011386;28;20190;-82
2021/04/26 04:45:33;;;;;;;2.60;2.40;;;2.10;99.90;;;;;;5010130;28;20197;-82
2021/04/26 04:47:59;;;;;;;4.80;2.80;;;2.20;99.90;;;;;;5011264;28;20193;-83
2021/04/26 04:50:24;;;;;;;6.03;2.80;;;2.30;99.90;;;;;;5009923;28;20495;-82
2021/04/26 04:52:50;;;;;;;4.30;3.50;;;2.30;99.90;;;;;;5005579;28;20197;-81
2021/04/26 04:55:16;;;;;;;3.60;2.40;;;2.30;99.90;;;;;;5007575;28;20193;-82
2021/04/26 04:57:42;;;;;;;3.67;2.43;;;2.30;99.90;;;;;;5024711;28;20456;-81
2021/04/26 05:00:08;;;;;;;6.07;3.67;;;2.40;99.90;;;;;;5010065;28;20185;-82
2021/04/26 05:02:34;;;;;;;3.60;2.60;;;2.40;99.90;;;;;;5008438;28;20263;-81
2021/04/26 05:05:00;;;;;;;4.83;2.67;;;2.40;99.90;;;;;;5009718;28;20476;-81
2021/04/26 05:07:25;;;;;;;3.10;2.80;;;2.40;99.90;;;;;;5008639;28;20687;-80
2021/04/26 05:09:51;;;;;;;2.53;2.27;;;2.50;99.90;;;;;;5008504;28;20295;-81
2021/04/26 05:12:17;;;;;;;2.57;2.37;;;2.60;99.90;;;;;;5005027;28;20201;-79
2021/04/26 05:14:45;;;;;;;2.30;2.10;;;2.60;99.90;;;;;;5009484;28;20204;-80
2021/04/26 05:17:11;;;;;;;2.47;2.27;;;2.60;99.90;;;;;;5009924;28;20240;-80
2021/04/26 05:19:37;;;;;;;3.17;2.60;;;2.70;99.90;;;;;;5001510;28;20445;-81
2021/04/26 05:22:03;;;;;;;2.70;2.50;;;2.70;99.90;;;;;;5004941;28;20194;-81
2021/04/26 05:24:31;;;;;;;5.93;3.00;;;2.80;99.90;;;;;;5007710;28;20731;-80
2021/04/26 05:26:56;;;;;;;2.57;2.37;;;2.90;99.90;;;;;;5005284;28;20447;-82
2021/04/26 05:29:22;;;;;;;3.37;2.70;;;3.00;99.90;;;;;;5006472;28;20814;-81
2021/04/26 05:31:48;;;;;;;4.10;2.30;;;3.10;99.90;;;;;;5006068;28;20256;-82
2021/04/26 05:34:13;;;;;;;2.50;2.30;;;3.10;99.90;;;;;;5007801;28;20186;-81
2021/04/26 05:36:39;;;;;;;3.30;2.27;;;3.20;99.90;;;;;;5006835;28;20189;-83
2021/04/26 05:39:05;;;;;;;3.60;2.10;;;3.30;99.90;;;;;;5007375;28;20184;-82
2021/04/26 05:41:31;;;;;;;2.57;2.30;;;3.30;99.90;;;;;;5006848;28;20193;-83
2021/04/26 05:43:57;;;;;;;3.73;2.70;;;3.40;99.90;;;;;;5010637;28;20513;-83
2021/04/26 05:46:24;;;;;;;2.77;2.57;;;3.50;99.90;;;;;;5007518;28;20448;-82
2021/04/26 05:48:50;;;;;;;3.03;1.67;;;3.60;99.90;;;;;;5004630;28;20434;-81
2021/04/26 05:51:16;;;;;;;2.57;2.37;;;3.60;99.90;;;;;;5006442;28;20460;-80
2021/04/26 05:53:42;;;;;;;2.87;2.30;;;3.60;99.90;;;;;;5006506;28;20198;-80
2021/04/26 05:56:08;;;;;;;2.30;1.63;;;3.70;99.90;;;;;;5007892;28;20446;-84
2021/04/26 05:58:34;;;;;;;2.43;2.23;;;3.70;99.90;;;;;;5008739;28;20441;-80
2021/04/26 06:01:00;;;;;;;1.77;1.70;;;3.80;99.90;;;;;;5005786;28;20440;-80
2021/04/26 06:03:26;;;;;;;1.70;1.60;;;3.80;99.90;;;;;;5008872;28;20199;-80
2021/04/26 06:05:52;;;;;;;4.47;1.60;;;3.80;99.90;;;;;;5003777;28;20452;-82
2021/04/26 06:08:18;;;;;;;1.87;1.77;;;3.90;99.90;;;;;;5003502;28;20446;-84
2021/04/26 06:10:45;;;;;;;2.13;1.67;;;3.90;99.90;;;;;;5004738;28;20194;-80
2021/04/26 06:13:11;;;;;;;5.50;2.17;;;3.90;99.90;;;;;;5002114;28;20425;-80
2021/04/26 06:15:36;;;;;;;1.53;1.50;;;4.00;99.90;;;;;;5005241;28;20438;-80
2021/04/26 06:18:16;;;;;;;1.20;1.20;;;4.10;99.90;;;;;;5010300;28;20178;-79
2021/04/26 06:20:44;;;;;;;1.83;1.60;;;4.10;99.90;;;;;;5006416;28;20950;-80
2021/04/26 06:23:10;;;;;;;1.40;1.30;;;4.20;99.90;;;;;;5018763;28;20457;-80
2021/04/26 06:25:37;;;;;;;1.67;1.30;;;4.20;99.90;;;;;;5009507;28;20949;-81
2021/04/26 06:28:07;;;;;;;1.63;1.53;;;4.20;99.90;;;;;;5024954;28;20194;-80
2021/04/26 06:30:34;;;;;;;1.27;1.10;;;4.20;99.90;;;;;;5027139;28;20920;-80
2021/04/26 06:33:00;;;;;;;1.43;1.33;;;4.20;99.90;;;;;;5014628;28;20452;-80
2021/04/26 06:35:26;;;;;;;1.30;1.20;;;4.40;99.90;;;;;;5013077;28;20473;-80
2021/04/26 06:37:52;;;;;;;1.90;1.80;;;4.40;99.90;;;;;;5007006;28;20273;-80
2021/04/26 06:40:17;;;;;;;1.50;1.40;;;4.50;99.90;;;;;;5011288;28;21573;-79
2021/04/26 06:42:43;;;;;;;2.50;1.30;;;4.60;99.90;;;;;;5006051;28;20217;-80
2021/04/26 06:45:10;;;;;;;1.33;1.23;;;4.60;99.90;;;;;;5009595;28;20219;-80
2021/04/26 06:47:38;;;;;;;1.37;1.30;;;4.60;99.90;;;;;;5013487;28;20502;-79
2021/04/26 06:50:05;;;;;;;1.63;1.30;;;4.60;99.90;;;;;;5015197;28;20946;-80
2021/04/26 06:52:31;;;;;;;4.70;1.60;;;4.70;99.90;;;;;;5014282;28;20525;-79
2021/04/26 06:54:56;;;;;;;2.80;1.53;;;4.70;99.90;;;;;;5014571;28;20539;-80
2021/04/26 06:57:22;;;;;;;2.00;1.30;;;4.80;99.90;;;;;;5012802;28;20187;-79
2021/04/26 06:59:48;;;;;;;2.10;1.33;;;4.90;99.90;;;;;;5010288;28;20209;-79
2021/04/26 07:02:13;;;;;;;2.13;1.30;;;4.90;99.90;;;;;;5006500;28;20628;-79
2021/04/26 07:04:39;;;;;;;2.23;1.40;;;5.00;99.90;;;;;;5005955;28;20203;-79
2021/04/26 07:07:05;;;;;;;1.50;1.40;;;5.10;99.90;;;;;;5005555;28;20178;-79
2021/04/26 07:09:30;;;;;;;1.33;1.27;;;5.20;99.90;;;;;;5004069;28;20185;-79
2021/04/26 07:11:57;;;;;;;1.30;1.30;;;5.30;99.90;;;;;;5012147;28;20187;-79
2021/04/26 07:14:23;;;;;;;1.87;1.20;;;5.30;99.90;;;;;;5003568;28;20189;-79
2021/04/26 07:16:49;;;;;;;1.40;1.30;;;5.30;99.90;;;;;;5004870;28;20441;-79
2021/04/26 07:19:15;;;;;;;1.70;1.60;;;5.40;99.90;;;;;;5011069;28;20448;-79
2021/04/26 07:21:41;;;;;;;2.67;1.40;;;5.50;99.90;;;;;;5009012;28;20277;-79
2021/04/26 07:24:07;;;;;;;1.50;1.33;;;5.60;99.90;;;;;;5005571;28;20269;-79
2021/04/26 07:26:33;;;;;;;1.60;1.50;;;5.70;99.90;;;;;;5002807;28;20595;-81
2021/04/26 07:28:59;;;;;;;3.23;1.40;;;5.80;99.90;;;;;;5005491;28;20520;-79
2021/04/26 07:31:24;;;;;;;1.90;1.63;;;5.90;99.90;;;;;;5004868;28;20229;-79
2021/04/26 07:33:50;;;;;;;1.87;1.77;;;6.00;99.90;;;;;;5022524;28;20183;-79
2021/04/26 07:36:16;;;;;;;2.60;1.47;;;6.10;99.90;;;;;;5006892;28;20193;-79
2021/04/26 07:38:41;;;;;;;2.40;1.50;;;6.20;99.90;;;;;;5007882;28;20178;-79
2021/04/26 07:41:07;;;;;;;3.07;1.17;;;6.40;99.90;;;;;;5006784;28;20683;-79
2021/04/26 07:43:33;;;;;;;1.70;1.60;;;6.40;99.90;;;;;;5004555;28;20187;-79
2021/04/26 07:45:58;;;;;;;2.23;1.50;;;6.50;99.90;;;;;;5003802;28;20190;-80
2021/04/26 07:48:24;;;;;;;1.63;1.53;;;6.50;99.90;;;;;;5006094;28;20571;-80
2021/04/26 07:50:50;;;;;;;1.23;1.23;;;6.60;99.90;;;;;;5005089;28;20301;-79
2021/04/26 07:53:16;;;;;;;1.50;1.40;;;6.70;99.90;;;;;;5004260;28;20191;-79
2021/04/26 07:55:42;;;;;;;2.37;1.37;;;6.80;99.90;;;;;;5004180;28;20217;-79
2021/04/26 07:58:08;;;;;;;2.00;1.80;;;6.90;99.90;;;;;;5006229;28;20468;-79
2021/04/26 08:00:35;;;;;;;3.40;1.70;;;7.00;99.90;;;;;;5002712;28;20944;-79
2021/04/26 08:03:00;;;;;;;1.57;1.47;;;7.00;99.90;;;;;;5006229;28;20444;-79
2021/04/26 08:05:28;;;;;;;1.20;1.20;;;7.30;99.90;;;;;;5002849;28;20434;-80
2021/04/26 08:07:54;;;;;;;1.70;1.50;;;7.40;99.90;;;;;;5008532;28;20781;-79
2021/04/26 08:10:20;;;;;;;1.80;1.70;;;7.50;99.90;;;;;;5011272;28;20989;-79
2021/04/26 08:12:46;;;;;;;1.93;1.40;;;7.70;99.90;;;;;;5011838;28;20468;-79
2021/04/26 08:15:12;;;;;;;1.50;1.40;;;7.80;99.90;;;;;;5010878;28;20687;-79
2021/04/26 08:17:38;;;;;;;2.87;1.20;;;7.90;99.90;;;;;;5011997;28;20635;-79
2021/04/26 08:20:06;;;;;;;1.80;1.70;;;8.00;99.90;;;;;;5012071;28;20447;-80
2021/04/26 08:22:31;;;;;;;1.50;1.40;;;8.00;99.90;;;;;;5009496;28;20459;-80
2021/04/26 08:24:57;;;;;;;3.23;1.50;;;8.10;99.90;;;;;;5011603;28;20429;-79
2021/04/26 08:27:23;;;;;;;1.80;1.70;;;8.10;99.90;;;;;;5012537;28;20201;-82
2021/04/26 08:29:49;;;;;;;7.67;1.50;;;8.10;99.90;;;;;;5006309;28;20212;-79
2021/04/26 08:32:14;;;;;;;1.47;1.20;;;8.30;99.90;;;;;;5004678;28;20229;-81
2021/04/26 08:34:40;;;;;;;2.67;2.00;;;8.40;99.90;;;;;;5001206;28;20439;-82
2021/04/26 08:37:06;;;;;;;2.37;1.80;;;8.50;99.90;;;;;;5014336;28;20214;-82
2021/04/26 08:39:32;;;;;;;1.30;1.20;;;8.70;99.50;;;;;;5003529;28;20178;-81
2021/04/26 08:41:57;;;;;;;6.33;1.63;;;8.80;99.90;;;;;;5005309;28;20587;-83
2021/04/26 08:44:23;;;;;;;1.40;1.30;;;9.00;99.00;;;;;;5004266;28;20426;-79
2021/04/26 08:46:49;;;;;;;1.20;1.20;;;9.00;99.20;;;;;;5007771;28;20656;-82
2021/04/26 08:49:19;;;;;;;2.47;2.37;;;9.20;99.90;;;;;;5002891;28;20257;-80
2021/04/26 08:51:46;;;;;;;3.00;1.97;;;9.30;99.90;;;;;;5002778;28;20203;-80
2021/04/26 08:54:16;;;;;;;2.27;1.80;;;9.60;99.50;;;;;;5003568;28;20429;-80
2021/04/26 08:56:43;;;;;;;2.07;1.83;;;9.60;99.40;;;;;;5011920;28;20453;-80
2021/04/26 08:59:09;;;;;;;4.57;2.13;;;9.70;99.10;;;;;;5004372;28;20450;-82
2021/04/26 09:01:34;;;;;;;2.37;1.50;;;9.60;99.40;;;;;;5003657;28;20448;-80
2021/04/26 09:04:11;;;;;;;1.77;1.30;;;9.70;99.60;;;;;;5000248;28;20191;-82
2021/04/26 09:06:54;;;;;;;2.33;1.40;;;9.80;99.90;;;;;;5005183;28;20537;-79
2021/04/26 09:09:38;;;;;;;2.60;1.33;;;9.80;99.90;;;;;;5004980;28;20533;-82
2021/04/26 09:12:12;;;;;;;4.17;1.63;;;9.70;98.70;;;;;;5005602;28;20449;-81
2021/04/26 09:14:43;;;;;;;1.63;1.53;;;9.70;98.40;;;;;;5004858;28;20525;-81
2021/04/26 09:17:28;;;;;;;2.13;1.10;;;9.50;98.00;;;;;;5021219;28;21001;-83
2021/04/26 09:19:56;;;;;;;2.03;1.50;;;9.50;99.60;;;;;;5005184;28;20538;-80
2021/04/26 09:22:49;;;;;;;1.57;1.47;;;9.60;99.10;;;;;;5003820;28;20733;-81
2021/04/26 09:25:32;;;;;;;5.00;1.57;;;9.70;98.80;;;;;;5005614;28;20939;-86
2021/04/26 09:28:13;;;;;;;39.87;3.60;;;9.60;98.40;;;;;;5027463;28;20413;-85
2021/04/26 09:30:53;;;;;;;5.43;1.77;;;9.60;99.20;;;;;;5025342;28;20802;-86
2021/04/26 09:33:39;;;;;;;1.90;1.80;;;9.70;97.60;;;;;;5013233;28;20429;-86
2021/04/26 09:36:21;;;;;;;1.70;1.60;;;9.70;99.00;;;;;;5010735;28;20434;-85
2021/04/26 09:38:51;;;;;;;1.67;1.57;;;9.60;98.80;;;;;;5009153;28;20441;-85
2021/04/26 09:41:23;;;;;;;1.50;1.40;;;9.80;97.90;;;;;;5023072;28;20507;-85
2021/04/26 09:44:05;;;;;;;2.50;2.00;;;9.80;97.60;;;;;;5011000;28;20765;-85
2021/04/26 09:46:50;;;;;;;3.10;1.70;;;9.80;96.80;;;;;;5006678;28;20426;-85
2021/04/26 09:49:18;;;;;;;2.00;1.63;;;9.80;97.90;;;;;;5008428;28;20437;-85
2021/04/26 09:51:47;;;;;;;1.73;1.63;;;9.90;97.50;;;;;;5010035;28;20987;-86
2021/04/26 09:54:12;;;;;;;1.87;1.77;;;10.00;96.90;;;;;;5013864;28;20430;-85
2021/04/26 09:56:41;;;;;;;1.60;1.50;;;10.00;96.70;;;;;;5010365;28;21203;-83
2021/04/26 09:59:08;;;;;;;1.60;1.50;;;10.10;96.10;;;;;;5007401;28;20194;-86
2021/04/26 10:01:35;;;;;;;1.87;1.77;;;10.10;95.50;;;;;;5009385;28;20441;-83
2021/04/26 10:04:06;;;;;;;5.03;1.90;;;10.50;96.10;;;;;;5007635;28;20528;-83
2021/04/26 10:06:33;;;;;;;4.20;1.70;;;10.90;97.20;;;;;;5008072;28;20524;-83
2021/04/26 10:09:03;;;;;;;2.23;1.40;;;11.20;95.20;;;;;;5004843;28;20835;-84
2021/04/26 10:11:31;;;;;;;4.80;2.07;;;11.50;94.20;;;;;;5005960;28;20457;-84
2021/04/26 10:14:08;;;;;;;3.13;1.60;;;11.40;95.60;;;;;;5006184;28;20449;-83
2021/04/26 10:16:50;;;;;;;1.50;1.40;;;11.60;93.90;;;;;;5009262;28;21340;-86
2021/04/26 10:19:16;;;;;;;2.50;1.53;;;11.60;94.00;;;;;;5022153;28;20429;-85
2021/04/26 10:21:54;;;;;;;1.40;1.30;;;11.50;93.60;;;;;;5028164;28;20459;-84
2021/04/26 10:24:22;;;;;;;1.50;1.50;;;11.50;92.90;;;;;;5001163;28;20540;-84
2021/04/26 10:26:56;;;;;;;2.10;2.00;;;11.40;93.50;;;;;;5018399;28;21006;-84
2021/04/26 10:29:27;;;;;;;3.60;1.90;;;11.30;93.80;;;;;;5002908;28;20441;-87
2021/04/26 10:32:02;;;;;;;1.83;1.73;;;11.20;93.90;;;;;;4999976;28;20429;-85
2021/04/26 10:34:43;;;;;;;2.43;2.10;;;11.10;93.50;;;;;;5006850;28;20929;-89
2021/04/26 10:37:14;;;;;;;1.27;1.17;;;11.00;93.60;;;;;;5012337;28;20878;-90
2021/04/26 10:40:08;;;;;;;1.67;1.40;;;11.10;94.30;;;;;;5008121;28;20748;-89
2021/04/26 10:42:43;;;;;;;3.20;1.90;;;11.40;94.50;;;;;;5007164;28;20489;-89
2021/04/26 10:45:20;;;;;;;1.73;1.47;;;11.50;93.40;;;;;;5005912;28;20425;-88
2021/04/26 10:48:10;;;;;;;1.30;1.30;;;11.70;92.50;;;;;;5008808;28;20556;-87
2021/04/26 10:50:38;;;;;;;2.63;1.90;;;11.80;92.80;;;;;;5009214;28;20453;-89
2021/04/26 10:53:05;;;;;;;3.90;1.87;;;12.00;92.00;;;;;;5022140;28;20429;-87
2021/04/26 10:55:33;;;;;;;1.57;1.37;;;11.90;92.30;;;;;;5012586;28;20442;-88
2021/04/26 10:58:19;;;;;;;2.60;1.70;;;11.90;93.40;;;;;;5018159;28;20518;-89
2021/04/26 11:00:45;;;;;;;2.27;1.97;;;12.10;92.60;;;;;;5016542;28;20479;-89
2021/04/26 11:03:12;;;;;;;2.63;1.60;;;12.40;95.20;;;;;;5015038;28;20962;-89
2021/04/26 11:05:43;;;;;;;4.93;1.70;;;12.70;94.20;;;;;;5010050;28;20483;-86
2021/04/26 11:08:53;;;;;;;1.77;1.67;;;12.90;93.10;;;;;;5010511;28;20433;-90
2021/04/26 11:13:59;;;;;;;1.97;1.27;;;12.60;93.10;;;;;;5016384;28;20438;-90
2021/04/26 11:16:32;;;;;;;1.53;1.43;;;12.70;94.20;;;;;;5016090;28;20453;-90
2021/04/26 11:18:58;;;;;;;2.20;1.73;;;13.10;91.80;;;;;;5013740;28;20516;-89
2021/04/26 11:21:48;;;;;;;1.77;1.67;;;13.50;92.50;;;;;;5017264;28;20812;-90
2021/04/26 11:24:36;;;;;;;1.50;1.50;;;13.60;90.00;;;;;;5014943;28;20181;-92
2021/04/26 11:27:07;;;;;;;1.67;1.57;;;13.50;90.10;;;;;;5015007;28;20522;-92
2021/04/26 11:29:54;;;;;;;3.30;1.70;;;13.70;90.50;;;;;;5012023;28;20473;-88
2021/04/26 11:32:22;;;;;;;2.20;1.80;;;13.70;87.90;;;;;;5002995;28;20611;-89
2021/04/26 11:34:48;;;;;;;3.00;1.80;;;13.80;90.70;;;;;;5010915;28;20431;-89
2021/04/26 11:37:19;;;;;;;1.70;1.60;;;14.00;87.50;;;;;;5017075;28;20433;-91
2021/04/26 11:39:59;;;;;;;1.63;1.53;;;14.00;88.30;;;;;;5015743;28;20929;-91
2021/04/26 11:42:30;;;;;;;1.40;1.30;;;14.40;90.80;;;;;;5036123;28;20421;-90
2021/04/26 11:44:57;;;;;;;1.77;1.67;;;14.60;85.70;;;;;;5010886;28;20430;-90
2021/04/26 11:47:24;;;;;;;1.27;1.20;;;14.30;84.50;;;;;;5027522;22;20421;-73
2021/04/26 11:49:52;;;;;;;1.63;1.47;;;14.20;85.40;;;;;;5006866;28;20504;-72
2021/04/26 11:52:22;;;;;;;1.63;1.53;;;14.10;88.30;;;;;;5014533;28;21050;-72
2021/04/26 11:54:50;;;;;;;1.70;1.40;;;14.00;88.30;;;;;;5013153;28;20516;-72
2021/04/26 11:57:19;;;;;;;1.77;1.37;;;14.10;84.70;;;;;;5014883;28;20492;-73
2021/04/26 11:59:50;;;;;;;1.27;1.27;;;14.30;87.00;;;;;;5004042;28;20437;-72
2021/04/26 12:02:38;;;;;;;2.00;1.70;;;14.60;86.90;;;;;;5010096;28;20433;-72
2021/04/26 12:05:12;;;;;;;2.23;1.60;;;15.00;89.20;;;;;;5020729;28;20433;-86
2021/04/26 12:07:38;;;;;;;1.90;1.60;;;14.70;84.40;;;;;;5014672;28;20436;-88
2021/04/26 12:10:30;;;;;;;1.77;1.47;;;14.90;82.40;;;;;;5013424;28;20477;-85
2021/04/26 12:13:01;;;;;;;1.80;1.57;;;15.00;82.00;;;;;;5009807;28;20453;-86
2021/04/26 12:15:27;;;;;;;1.33;1.23;;;15.00;78.60;;;;;;5011948;28;20447;-86
2021/04/26 12:17:55;;;;;;;1.47;1.30;;;14.60;77.80;;;;;;5015806;28;20551;-86
2021/04/26 12:20:36;;;;;;;1.90;1.70;;;14.50;80.00;;;;;;5011719;28;20478;-85
2021/04/26 12:23:14;;;;;;;4.23;1.40;;;14.30;79.50;;;;;;5003914;28;20452;-85
2021/04/26 12:25:42;;;;;;;2.10;1.40;;;14.50;82.70;;;;;;5024434;28;20441;-81
2021/04/26 12:28:10;;;;;;;3.17;1.90;;;15.00;81.20;;;;;;5012961;28;20451;-72
2021/04/26 12:30:41;;;;;;;1.73;1.43;;;15.10;80.30;;;;;;5016027;28;20498;-81
2021/04/26 12:33:30;;;;;;;1.90;1.63;;;15.30;86.60;;;;;;5006037;28;20420;-73
2021/04/26 12:35:58;;;;;;;1.83;1.57;;;15.50;81.40;;;;;;5018098;28;20444;-78
2021/04/26 12:38:29;;;;;;;2.23;1.40;;;15.30;79.20;;;;;;5025962;28;20426;-78
2021/04/26 12:40:57;;;;;;;2.03;1.50;;;14.80;78.60;;;;;;5002438;28;20521;-75
2021/04/26 12:43:34;;;;;;;1.83;1.70;;;14.20;80.80;;;;;;5007668;28;20469;-75
2021/04/26 12:46:12;;;;;;;5.53;1.80;;;13.90;84.60;;;;;;5019323;28;20447;-75
2021/04/26 12:48:40;;;;;;;1.67;1.57;;;14.30;88.60;;;;;;5014077;28;20449;-75
2021/04/26 12:51:07;;;;;;;7.27;1.57;;;14.80;86.80;;;;;;5014922;28;20962;-75
2021/04/26 12:53:34;;;;;;;1.30;1.20;;;15.20;83.50;;;;;;5016499;28;20426;-75
2021/04/26 12:56:00;;;;;;;3.20;1.90;;;15.40;83.20;;;;;;5009010;28;20732;-75
2021/04/26 12:58:27;;;;;;;8.03;1.93;;;15.20;78.00;;;;;;5014539;28;20452;-74
2021/04/26 13:00:55;;;;;;;1.73;1.20;;;14.80;81.10;;;;;;5012699;28;20208;-74
2021/04/26 13:03:26;;;;;;;1.60;1.50;;;14.70;81.30;;;;;;5010129;28;21000;-74
2021/04/26 13:05:54;;;;;;;1.87;1.77;;;14.60;81.70;;;;;;5008268;28;20440;-74
2021/04/26 13:08:21;;;;;;;2.50;1.50;;;14.30;84.20;;;;;;5008907;28;20441;-75